sensor_id;sensor_type;location;lat;lon;timestamp;pressure;altitude;pressure_sealevel;temperature;humidity
69528;BME280;57136;51.986;4.468;2023-01-30T00:00:31;101891.25;;;7.80;100.00
69528;BME280;57136;51.986;4.468;2023-01-30T00:02:57;101897.09;;;7.74;100.00
69528;BME280;57136;51.986;4.468;2023-01-30T00:05:22;101902.28;;;7.74;100.00
69528;BME280;57136;51.986;4.468;2023-01-30T00:07:47;101901.41;;;7.74;100.00
69528;BME280;57136;51.986;4.468;2023-01-30T00:10:13;101897.19;;;7.77;100.00
69528;BME280;57136;51.986;4.468;2023-01-30T00:12:39;101898.03;;;7.76;100.00
69528;BME280;57136;51.986;4.468;2023-01-30T00:15:05;101874.66;;;7.76;100.00
69528;BME280;57136;51.986;4.468;2023-01-30T00:17:31;101879.13;;;7.80;100.00
69528;BME280;57136;51.986;4.468;2023-01-30T00:20:03;101887.03;;;7.84;100.00
69528;BME280;57136;51.986;4.468;2023-01-30T00:22:28;101884.22;;;7.77;100.00
69528;BME280;57136;51.986;4.468;2023-01-30T00:24:54;101881.72;;;7.80;100.00
69528;BME280;57136;51.986;4.468;2023-01-30T00:27:20;101886.06;;;7.80;100.00
69528;BME280;57136;51.986;4.468;2023-01-30T00:29:46;101866.56;;;7.67;100.00
69528;BME280;57136;51.986;4.468;2023-01-30T00:32:12;101854.72;;;7.74;100.00
69528;BME280;57136;51.986;4.468;2023-01-30T00:34:38;101852.88;;;7.71;100.00
69528;BME280;57136;51.986;4.468;2023-01-30T00:37:03;101844.56;;;7.82;100.00
69528;BME280;57136;51.986;4.468;2023-01-30T00:39:28;101852.78;;;7.68;100.00
69528;BME280;57136;51.986;4.468;2023-01-30T00:41:54;101852.88;;;7.71;100.00
69528;BME280;57136;51.986;4.468;2023-01-30T00:44:37;101845.91;;;7.70;100.00
69528;BME280;57136;51.986;4.468;2023-01-30T00:47:21;101844.22;;;7.71;100.00
69528;BME280;57136;51.986;4.468;2023-01-30T00:49:47;101839.88;;;7.70;100.00
69528;BME280;57136;51.986;4.468;2023-01-30T00:52:13;101843.22;;;7.67;100.00
69528;BME280;57136;51.986;4.468;2023-01-30T00:54:38;101831.97;;;7.67;100.00
69528;BME280;57136;51.986;4.468;2023-01-30T00:57:04;101833.06;;;7.73;100.00
69528;BME280;57136;51.986;4.468;2023-01-30T00:59:29;101828.66;;;7.71;100.00
69528;BME280;57136;51.986;4.468;2023-01-30T01:01:55;101831.19;;;7.69;100.00
69528;BME280;57136;51.986;4.468;2023-01-30T01:04:20;101812.84;;;7.63;100.00
69528;BME280;57136;51.986;4.468;2023-01-30T01:06:46;101787.91;;;7.68;100.00
69528;BME280;57136;51.986;4.468;2023-01-30T01:09:12;101767.84;;;7.62;100.00
69528;BME280;57136;51.986;4.468;2023-01-30T01:11:37;101769.75;;;7.68;100.00
69528;BME280;57136;51.986;4.468;2023-01-30T01:14:04;101764.63;;;7.70;100.00
69528;BME280;57136;51.986;4.468;2023-01-30T01:16:31;101773.94;;;7.63;100.00
69528;BME280;57136;51.986;4.468;2023-01-30T01:18:58;101756.03;;;7.72;100.00
69528;BME280;57136;51.986;4.468;2023-01-30T01:21:23;101773.00;;;7.61;100.00
69528;BME280;57136;51.986;4.468;2023-01-30T01:23:54;101767.63;;;7.55;100.00
69528;BME280;57136;51.986;4.468;2023-01-30T01:26:20;101771.13;;;7.57;100.00
69528;BME280;57136;51.986;4.468;2023-01-30T01:28:46;101775.41;;;7.55;100.00
69528;BME280;57136;51.986;4.468;2023-01-30T01:31:14;101772.59;;;7.48;100.00
69528;BME280;57136;51.986;4.468;2023-01-30T01:33:39;101777.88;;;7.52;100.00
69528;BME280;57136;51.986;4.468;2023-01-30T01:36:05;101771.06;;;7.55;100.00
69528;BME280;57136;51.986;4.468;2023-01-30T01:38:31;101777.41;;;7.63;100.00
69528;BME280;57136;51.986;4.468;2023-01-30T01:40:57;101776.44;;;7.60;100.00
69528;BME280;57136;51.986;4.468;2023-01-30T01:43:56;101780.78;;;7.61;100.00
69528;BME280;57136;51.986;4.468;2023-01-30T01:46:25;101782.97;;;7.48;100.00
69528;BME280;57136;51.986;4.468;2023-01-30T01:48:55;101778.03;;;7.56;100.00
69528;BME280;57136;51.986;4.468;2023-01-30T01:54:24;101785.66;;;7.52;100.00
69528;BME280;57136;51.986;4.468;2023-01-30T01:56:52;101782.97;;;7.48;100.00
69528;BME280;57136;51.986;4.468;2023-01-30T01:59:36;101779.44;;;7.46;100.00
69528;BME280;57136;51.986;4.468;2023-01-30T02:02:09;101784.16;;;7.31;100.00
69528;BME280;57136;51.986;4.468;2023-01-30T02:04:39;101779.41;;;7.45;100.00
69528;BME280;57136;51.986;4.468;2023-01-30T02:07:37;101771.19;;;7.31;100.00
69528;BME280;57136;51.986;4.468;2023-01-30T02:10:06;101775.53;;;7.32;100.00
69528;BME280;57136;51.986;4.468;2023-01-30T02:12:32;101783.00;;;7.23;100.00
69528;BME280;57136;51.986;4.468;2023-01-30T02:14:59;101770.13;;;7.26;100.00
69528;BME280;57136;51.986;4.468;2023-01-30T02:17:25;101760.81;;;7.31;100.00
69528;BME280;57136;51.986;4.468;2023-01-30T02:28:51;101743.97;;;7.45;100.00
69528;BME280;57136;51.986;4.468;2023-01-30T02:31:42;101740.00;;;7.57;100.00
69528;BME280;57136;51.986;4.468;2023-01-30T02:37:08;101754.00;;;7.62;100.00
69528;BME280;57136;51.986;4.468;2023-01-30T02:39:53;101749.66;;;7.61;100.00
69528;BME280;57136;51.986;4.468;2023-01-30T02:47:59;101759.00;;;7.56;100.00
69528;BME280;57136;51.986;4.468;2023-01-30T02:50:43;101749.75;;;7.64;100.00
69528;BME280;57136;51.986;4.468;2023-01-30T02:53:10;101747.78;;;7.57;100.00
69528;BME280;57136;51.986;4.468;2023-01-30T02:55:39;101740.16;;;7.61;100.00
69528;BME280;57136;51.986;4.468;2023-01-30T02:58:05;101753.75;;;7.82;100.00
69528;BME280;57136;51.986;4.468;2023-01-30T03:14:58;101742.34;;;7.76;100.00
69528;BME280;57136;51.986;4.468;2023-01-30T03:17:25;101735.25;;;7.71;100.00
69528;BME280;57136;51.986;4.468;2023-01-30T03:19:53;101740.47;;;7.72;100.00
69528;BME280;57136;51.986;4.468;2023-01-30T03:22:20;101740.56;;;7.75;100.00
69528;BME280;57136;51.986;4.468;2023-01-30T03:24:46;101720.81;;;7.79;100.00
69528;BME280;57136;51.986;4.468;2023-01-30T03:27:13;101742.41;;;7.78;100.00
69528;BME280;57136;51.986;4.468;2023-01-30T03:29:39;101723.34;;;7.77;100.00
69528;BME280;57136;51.986;4.468;2023-01-30T03:32:05;101738.91;;;7.77;100.00
69528;BME280;57136;51.986;4.468;2023-01-30T03:34:31;101718.88;;;7.73;100.00
69528;BME280;57136;51.986;4.468;2023-01-30T03:36:56;101718.94;;;7.75;100.00
69528;BME280;57136;51.986;4.468;2023-01-30T03:39:23;101704.06;;;7.69;100.00
69528;BME280;57136;51.986;4.468;2023-01-30T03:41:49;101717.38;;;7.80;100.00
69528;BME280;57136;51.986;4.468;2023-01-30T03:44:14;101711.19;;;7.76;100.00
69528;BME280;57136;51.986;4.468;2023-01-30T03:46:40;101727.47;;;7.71;100.00
69528;BME280;57136;51.986;4.468;2023-01-30T03:49:05;101711.16;;;7.75;100.00
69528;BME280;57136;51.986;4.468;2023-01-30T03:51:31;101718.63;;;7.64;100.00
69528;BME280;57136;51.986;4.468;2023-01-30T03:53:56;101729.84;;;7.63;100.00
69528;BME280;57136;51.986;4.468;2023-01-30T03:56:22;101741.03;;;7.62;100.00
69528;BME280;57136;51.986;4.468;2023-01-30T03:58:47;101722.09;;;7.64;100.00
69528;BME280;57136;51.986;4.468;2023-01-30T04:01:12;101707.22;;;7.59;100.00
69528;BME280;57136;51.986;4.468;2023-01-30T04:03:38;101719.56;;;7.66;100.00
69528;BME280;57136;51.986;4.468;2023-01-30T04:06:03;101722.97;;;7.65;100.00
69528;BME280;57136;51.986;4.468;2023-01-30T04:08:29;101722.88;;;7.62;100.00
69528;BME280;57136;51.986;4.468;2023-01-30T04:10:54;101720.97;;;7.56;100.00
69528;BME280;57136;51.986;4.468;2023-01-30T04:13:23;101718.53;;;7.61;100.00
69528;BME280;57136;51.986;4.468;2023-01-30T04:15:48;101715.50;;;7.47;100.00
69528;BME280;57136;51.986;4.468;2023-01-30T04:18:13;101729.34;;;7.47;100.00
69528;BME280;57136;51.986;4.468;2023-01-30T04:20:39;101711.91;;;7.43;100.00
69528;BME280;57136;51.986;4.468;2023-01-30T04:23:04;101715.09;;;7.34;100.00
69528;BME280;57136;51.986;4.468;2023-01-30T04:25:30;101730.88;;;7.41;100.00
69528;BME280;57136;51.986;4.468;2023-01-30T04:27:55;101734.81;;;7.29;100.00
69528;BME280;57136;51.986;4.468;2023-01-30T04:30:20;101747.94;;;7.34;100.00
69528;BME280;57136;51.986;4.468;2023-01-30T04:32:46;101736.16;;;7.44;100.00
69528;BME280;57136;51.986;4.468;2023-01-30T04:35:12;101746.34;;;7.39;100.00
69528;BME280;57136;51.986;4.468;2023-01-30T04:37:37;101757.53;;;7.37;100.00
69528;BME280;57136;51.986;4.468;2023-01-30T04:40:03;101755.72;;;7.34;100.00
69528;BME280;57136;51.986;4.468;2023-01-30T04:42:28;101769.97;;;7.47;100.00
69528;BME280;57136;51.986;4.468;2023-01-30T04:44:54;101756.41;;;7.56;100.00
69528;BME280;57136;51.986;4.468;2023-01-30T04:47:19;101761.84;;;7.63;100.00
69528;BME280;57136;51.986;4.468;2023-01-30T04:49:45;101771.38;;;7.64;100.00
69528;BME280;57136;51.986;4.468;2023-01-30T04:52:10;101769.09;;;7.74;100.00
69528;BME280;57136;51.986;4.468;2023-01-30T04:54:35;101776.13;;;7.78;100.00
69528;BME280;57136;51.986;4.468;2023-01-30T04:57:01;101768.59;;;7.87;100.00
69528;BME280;57136;51.986;4.468;2023-01-30T04:59:26;101782.09;;;8.04;100.00
69528;BME280;57136;51.986;4.468;2023-01-30T05:01:51;101783.53;;;7.94;100.00
69528;BME280;57136;51.986;4.468;2023-01-30T05:04:17;101780.72;;;7.87;100.00
69528;BME280;57136;51.986;4.468;2023-01-30T05:06:43;101787.47;;;7.82;100.00
69528;BME280;57136;51.986;4.468;2023-01-30T05:09:08;101783.84;;;7.76;100.00
69528;BME280;57136;51.986;4.468;2023-01-30T05:11:34;101789.59;;;7.66;100.00
69528;BME280;57136;51.986;4.468;2023-01-30T05:13:59;101787.66;;;7.60;100.00
69528;BME280;57136;51.986;4.468;2023-01-30T05:16:26;101791.44;;;7.70;100.00
69528;BME280;57136;51.986;4.468;2023-01-30T05:18:51;101785.16;;;7.62;100.00
69528;BME280;57136;51.986;4.468;2023-01-30T05:21:23;101781.28;;;7.49;100.00
69528;BME280;57136;51.986;4.468;2023-01-30T05:23:51;101762.41;;;7.27;100.00
69528;BME280;57136;51.986;4.468;2023-01-30T05:26:21;101770.81;;;7.20;100.00
69528;BME280;57136;51.986;4.468;2023-01-30T05:28:54;101787.25;;;7.20;100.00
69528;BME280;57136;51.986;4.468;2023-01-30T05:31:19;101787.25;;;7.20;100.00
69528;BME280;57136;51.986;4.468;2023-01-30T05:33:47;101775.44;;;7.03;100.00
69528;BME280;57136;51.986;4.468;2023-01-30T05:36:15;101774.50;;;7.01;100.00
69528;BME280;57136;51.986;4.468;2023-01-30T05:38:41;101775.13;;;6.94;100.00
69528;BME280;57136;51.986;4.468;2023-01-30T05:41:07;101779.34;;;6.92;100.00
69528;BME280;57136;51.986;4.468;2023-01-30T05:43:34;101808.03;;;6.96;100.00
69528;BME280;57136;51.986;4.468;2023-01-30T05:46:01;101802.31;;;6.81;100.00
69528;BME280;57136;51.986;4.468;2023-01-30T05:48:27;101794.66;;;6.84;100.00
69528;BME280;57136;51.986;4.468;2023-01-30T05:50:54;101802.91;;;6.73;100.00
69528;BME280;57136;51.986;4.468;2023-01-30T05:53:22;101803.34;;;6.86;100.00
69528;BME280;57136;51.986;4.468;2023-01-30T05:55:58;101807.34;;;6.76;100.00
69528;BME280;57136;51.986;4.468;2023-01-30T05:58:25;101811.72;;;6.79;100.00
69528;BME280;57136;51.986;4.468;2023-01-30T06:00:51;101815.09;;;6.76;100.00
69528;BME280;57136;51.986;4.468;2023-01-30T06:03:16;101804.91;;;6.81;100.00
69528;BME280;57136;51.986;4.468;2023-01-30T06:05:43;101794.81;;;6.64;100.00
69528;BME280;57136;51.986;4.468;2023-01-30T06:08:09;101782.41;;;6.55;100.00
69528;BME280;57136;51.986;4.468;2023-01-30T06:10:35;101800.00;;;6.64;100.00
69528;BME280;57136;51.986;4.468;2023-01-30T06:13:00;101791.06;;;6.56;100.00
69528;BME280;57136;51.986;4.468;2023-01-30T06:15:26;101805.72;;;6.55;100.00
69528;BME280;57136;51.986;4.468;2023-01-30T06:17:52;101808.22;;;6.52;100.00
69528;BME280;57136;51.986;4.468;2023-01-30T06:20:18;101794.44;;;6.53;100.00
69528;BME280;57136;51.986;4.468;2023-01-30T06:22:43;101791.06;;;6.56;100.00
69528;BME280;57136;51.986;4.468;2023-01-30T06:25:12;101792.72;;;6.54;100.00
69528;BME280;57136;51.986;4.468;2023-01-30T06:27:37;101800.47;;;6.54;100.00
69528;BME280;57136;51.986;4.468;2023-01-30T06:30:03;101808.81;;;6.45;99.97
69528;BME280;57136;51.986;4.468;2023-01-30T06:32:28;101808.22;;;6.52;98.32
69528;BME280;57136;51.986;4.468;2023-01-30T06:34:54;101812.34;;;6.47;98.11
69528;BME280;57136;51.986;4.468;2023-01-30T06:37:19;101808.41;;;6.34;97.44
69528;BME280;57136;51.986;4.468;2023-01-30T06:39:44;101816.69;;;6.48;96.67
69528;BME280;57136;51.986;4.468;2023-01-30T06:42:10;101807.09;;;6.45;95.32
69528;BME280;57136;51.986;4.468;2023-01-30T06:44:35;101805.00;;;6.35;93.88
69528;BME280;57136;51.986;4.468;2023-01-30T06:47:01;101801.84;;;6.44;91.95
69528;BME280;57136;51.986;4.468;2023-01-30T06:49:26;101807.28;;;6.50;91.55
69528;BME280;57136;51.986;4.468;2023-01-30T06:51:51;101826.44;;;6.33;92.21
69528;BME280;57136;51.986;4.468;2023-01-30T06:54:18;101817.28;;;6.41;91.01
69528;BME280;57136;51.986;4.468;2023-01-30T06:56:43;101811.75;;;6.32;90.64
69528;BME280;57136;51.986;4.468;2023-01-30T06:59:09;101804.91;;;6.34;89.85
69528;BME280;57136;51.986;4.468;2023-01-30T07:01:34;101808.81;;;6.45;90.30
69528;BME280;57136;51.986;4.468;2023-01-30T07:03:59;101828.50;;;6.41;90.39
69528;BME280;57136;51.986;4.468;2023-01-30T07:06:26;101832.78;;;6.39;90.08
69528;BME280;57136;51.986;4.468;2023-01-30T07:08:51;101846.69;;;6.43;89.68
69528;BME280;57136;51.986;4.468;2023-01-30T07:11:18;101855.69;;;6.53;89.72
69528;BME280;57136;51.986;4.468;2023-01-30T07:13:43;101841.00;;;6.29;90.46
69528;BME280;57136;51.986;4.468;2023-01-30T07:16:09;101846.88;;;6.48;90.35
69528;BME280;57136;51.986;4.468;2023-01-30T07:18:35;101866.44;;;6.39;90.43
69528;BME280;57136;51.986;4.468;2023-01-30T07:21:01;101858.13;;;6.48;90.31
69528;BME280;57136;51.986;4.468;2023-01-30T07:23:26;101840.34;;;6.35;90.87
69528;BME280;57136;51.986;4.468;2023-01-30T07:25:51;101865.88;;;6.48;90.75
69528;BME280;57136;51.986;4.468;2023-01-30T07:28:18;101860.09;;;6.55;90.87
69528;BME280;57136;51.986;4.468;2023-01-30T07:30:43;101865.00;;;6.48;91.28
69528;BME280;57136;51.986;4.468;2023-01-30T07:33:09;101868.94;;;6.38;91.72
69528;BME280;57136;51.986;4.468;2023-01-30T07:35:35;101852.47;;;6.36;92.05
69528;BME280;57136;51.986;4.468;2023-01-30T07:38:02;101860.06;;;6.54;91.14
69528;BME280;57136;51.986;4.468;2023-01-30T07:40:27;101846.34;;;6.34;92.63
69528;BME280;57136;51.986;4.468;2023-01-30T07:43:04;101847.53;;;6.42;92.95
69528;BME280;57136;51.986;4.468;2023-01-30T07:45:34;101850.41;;;6.27;93.09
69528;BME280;57136;51.986;4.468;2023-01-30T07:48:00;101845.75;;;6.41;92.22
69528;BME280;57136;51.986;4.468;2023-01-30T07:50:26;101848.31;;;6.39;92.81
69528;BME280;57136;51.986;4.468;2023-01-30T07:52:51;101835.94;;;6.32;92.65
69528;BME280;57136;51.986;4.468;2023-01-30T07:55:18;101862.25;;;6.43;92.16
69528;BME280;57136;51.986;4.468;2023-01-30T07:57:43;101858.16;;;6.50;92.15
69528;BME280;57136;51.986;4.468;2023-01-30T08:00:09;101870.94;;;6.45;92.51
69528;BME280;57136;51.986;4.468;2023-01-30T08:02:35;101876.69;;;6.60;92.31
69528;BME280;57136;51.986;4.468;2023-01-30T08:05:01;101894.00;;;6.62;92.42
69528;BME280;57136;51.986;4.468;2023-01-30T08:07:26;101885.00;;;6.52;93.71
69528;BME280;57136;51.986;4.468;2023-01-30T08:09:52;101891.66;;;6.45;93.48
69528;BME280;57136;51.986;4.468;2023-01-30T08:12:20;101890.53;;;6.61;92.47
69528;BME280;57136;51.986;4.468;2023-01-30T08:14:45;101895.72;;;6.61;92.63
69528;BME280;57136;51.986;4.468;2023-01-30T08:17:11;101869.31;;;6.47;92.59
69528;BME280;57136;51.986;4.468;2023-01-30T08:19:36;101893.00;;;6.58;92.25
69528;BME280;57136;51.986;4.468;2023-01-30T08:22:02;101894.91;;;6.62;92.46
69528;BME280;57136;51.986;4.468;2023-01-30T08:24:27;101882.38;;;6.74;91.91
69528;BME280;57136;51.986;4.468;2023-01-30T08:26:53;101892.13;;;6.57;91.02
69528;BME280;57136;51.986;4.468;2023-01-30T08:29:18;101900.38;;;6.70;90.74
69528;BME280;57136;51.986;4.468;2023-01-30T08:31:43;101910.06;;;6.75;91.10
69528;BME280;57136;51.986;4.468;2023-01-30T08:34:09;101908.38;;;6.76;90.62
69528;BME280;57136;51.986;4.468;2023-01-30T08:36:34;101902.28;;;6.75;91.24
69528;BME280;57136;51.986;4.468;2023-01-30T08:39:00;101904.56;;;6.90;90.40
69528;BME280;57136;51.986;4.468;2023-01-30T08:41:26;101890.56;;;6.85;90.60
69528;BME280;57136;51.986;4.468;2023-01-30T08:43:52;101911.47;;;6.90;90.11
69528;BME280;57136;51.986;4.468;2023-01-30T08:46:18;101926.91;;;7.11;89.62
69528;BME280;57136;51.986;4.468;2023-01-30T08:48:47;101952.91;;;7.13;89.09
69528;BME280;57136;51.986;4.468;2023-01-30T08:51:12;101944.72;;;7.26;88.53
69528;BME280;57136;51.986;4.468;2023-01-30T08:53:38;101956.97;;;7.30;87.22
69528;BME280;57136;51.986;4.468;2023-01-30T08:56:04;101943.25;;;7.33;86.57
69528;BME280;57136;51.986;4.468;2023-01-30T08:58:29;101925.72;;;7.26;87.00
69528;BME280;57136;51.986;4.468;2023-01-30T09:00:55;101954.75;;;7.41;86.66
69528;BME280;57136;51.986;4.468;2023-01-30T09:03:20;101947.31;;;7.50;85.85
69528;BME280;57136;51.986;4.468;2023-01-30T09:05:46;101965.22;;;7.43;86.33
69528;BME280;57136;51.986;4.468;2023-01-30T09:08:18;101943.78;;;7.48;86.79
69528;BME280;57136;51.986;4.468;2023-01-30T09:10:43;101964.88;;;7.58;86.08
69528;BME280;57136;51.986;4.468;2023-01-30T09:13:08;101960.72;;;7.39;86.82
69528;BME280;57136;51.986;4.468;2023-01-30T09:15:34;101953.81;;;7.39;86.82
69528;BME280;57136;51.986;4.468;2023-01-30T09:17:59;101965.88;;;7.37;87.57
69528;BME280;57136;51.986;4.468;2023-01-30T09:20:26;101958.03;;;7.60;86.53
69528;BME280;57136;51.986;4.468;2023-01-30T09:22:51;101965.91;;;7.89;84.97
69528;BME280;57136;51.986;4.468;2023-01-30T09:25:16;101973.53;;;8.37;83.45
69528;BME280;57136;51.986;4.468;2023-01-30T09:27:47;101977.53;;;8.53;81.12
69528;BME280;57136;51.986;4.468;2023-01-30T09:30:13;101985.41;;;8.29;81.63
69528;BME280;57136;51.986;4.468;2023-01-30T09:32:39;101976.50;;;8.21;83.23
69528;BME280;57136;51.986;4.468;2023-01-30T09:35:04;101974.88;;;8.52;81.38
69528;BME280;57136;51.986;4.468;2023-01-30T09:37:30;101988.81;;;8.28;82.63
69528;BME280;57136;51.986;4.468;2023-01-30T09:39:56;101988.50;;;8.45;82.35
69528;BME280;57136;51.986;4.468;2023-01-30T09:50:44;102016.47;;;8.00;83.95
69528;BME280;57136;51.986;4.468;2023-01-30T09:56:15;102006.50;;;8.13;83.08
69528;BME280;57136;51.986;4.468;2023-01-30T09:58:46;102007.69;;;7.71;83.44
69528;BME280;57136;51.986;4.468;2023-01-30T10:03:58;102024.72;;;8.14;83.06
69528;BME280;57136;51.986;4.468;2023-01-30T10:06:26;102033.50;;;8.44;82.53
69528;BME280;57136;51.986;4.468;2023-01-30T10:11:55;102041.78;;;8.32;82.56
69528;BME280;57136;51.986;4.468;2023-01-30T10:17:30;102067.53;;;8.79;79.46
69528;BME280;57136;51.986;4.468;2023-01-30T10:20:19;102066.56;;;8.75;79.39
69528;BME280;57136;51.986;4.468;2023-01-30T10:25:45;102062.44;;;8.54;81.10
69528;BME280;57136;51.986;4.468;2023-01-30T10:28:15;102073.53;;;8.49;81.22
69528;BME280;57136;51.986;4.468;2023-01-30T10:30:46;102073.66;;;8.28;81.81
69528;BME280;57136;51.986;4.468;2023-01-30T10:33:43;102088.09;;;8.98;78.60
69528;BME280;57136;51.986;4.468;2023-01-30T10:36:15;102074.56;;;8.81;79.50
69528;BME280;57136;51.986;4.468;2023-01-30T10:38:50;102074.59;;;8.83;79.19
69528;BME280;57136;51.986;4.468;2023-01-30T10:41:35;102072.09;;;8.33;81.13
69528;BME280;57136;51.986;4.468;2023-01-30T10:44:08;102070.25;;;8.54;80.86
69528;BME280;57136;51.986;4.468;2023-01-30T10:49:43;102073.78;;;8.57;81.90
69528;BME280;57136;51.986;4.468;2023-01-30T10:54:57;102079.97;;;8.88;80.78
69528;BME280;57136;51.986;4.468;2023-01-30T10:57:38;102071.41;;;8.38;81.83
69528;BME280;57136;51.986;4.468;2023-01-30T11:00:27;102075.44;;;8.54;81.75
69528;BME280;57136;51.986;4.468;2023-01-30T11:03:21;102096.03;;;9.03;80.86
69528;BME280;57136;51.986;4.468;2023-01-30T11:05:51;102088.47;;;8.56;81.56
69528;BME280;57136;51.986;4.468;2023-01-30T11:08:25;102094.19;;;8.46;81.76
69528;BME280;57136;51.986;4.468;2023-01-30T11:10:52;102089.59;;;8.38;83.10
69528;BME280;57136;51.986;4.468;2023-01-30T11:13:20;102088.34;;;8.51;82.99
69528;BME280;57136;51.986;4.468;2023-01-30T11:15:48;102092.13;;;8.11;83.39
69528;BME280;57136;51.986;4.468;2023-01-30T11:18:16;102113.09;;;8.67;82.21
69528;BME280;57136;51.986;4.468;2023-01-30T11:20:59;102085.34;;;8.40;82.29
69528;BME280;57136;51.986;4.468;2023-01-30T11:23:34;102090.59;;;8.68;81.39
69528;BME280;57136;51.986;4.468;2023-01-30T11:26:01;102089.28;;;8.29;83.00
69528;BME280;57136;51.986;4.468;2023-01-30T11:28:34;102070.16;;;8.27;83.47
69528;BME280;57136;51.986;4.468;2023-01-30T11:31:15;102077.13;;;8.28;83.87
69528;BME280;57136;51.986;4.468;2023-01-30T11:33:43;102062.84;;;8.15;84.38
69528;BME280;57136;51.986;4.468;2023-01-30T11:36:24;102081.66;;;8.34;83.69
69528;BME280;57136;51.986;4.468;2023-01-30T11:39:02;102085.00;;;8.56;83.28
69528;BME280;57136;51.986;4.468;2023-01-30T11:41:29;102091.22;;;8.35;83.69
69528;BME280;57136;51.986;4.468;2023-01-30T11:44:03;102091.41;;;8.67;83.00
69528;BME280;57136;51.986;4.468;2023-01-30T11:46:33;102099.16;;;8.64;83.41
69528;BME280;57136;51.986;4.468;2023-01-30T11:49:03;102076.66;;;8.93;83.01
69528;BME280;57136;51.986;4.468;2023-01-30T11:51:30;102097.66;;;8.72;83.36
69528;BME280;57136;51.986;4.468;2023-01-30T11:54:13;102078.34;;;8.91;81.18
69528;BME280;57136;51.986;4.468;2023-01-30T11:56:48;102088.78;;;9.83;79.87
69528;BME280;57136;51.986;4.468;2023-01-30T12:02:17;102085.94;;;10.05;73.94
69528;BME280;57136;51.986;4.468;2023-01-30T12:04:45;102084.66;;;9.59;76.43
69528;BME280;57136;51.986;4.468;2023-01-30T12:07:25;102096.28;;;10.70;74.53
69528;BME280;57136;51.986;4.468;2023-01-30T12:09:52;102082.41;;;10.37;73.19
69528;BME280;57136;51.986;4.468;2023-01-30T12:12:31;102084.13;;;10.70;72.93
69528;BME280;57136;51.986;4.468;2023-01-30T12:20:24;102082.19;;;9.96;74.36
69528;BME280;57136;51.986;4.468;2023-01-30T12:28:23;102089.16;;;9.34;78.58
69528;BME280;57136;51.986;4.468;2023-01-30T12:30:58;102081.31;;;9.33;78.59
69528;BME280;57136;51.986;4.468;2023-01-30T12:33:29;102089.38;;;9.13;78.77
69528;BME280;57136;51.986;4.468;2023-01-30T12:57:59;102101.31;;;9.96;75.17
69528;BME280;57136;51.986;4.468;2023-01-30T13:03:23;102106.63;;;9.99;75.29
69528;BME280;57136;51.986;4.468;2023-01-30T13:06:15;102126.94;;;10.80;73.25
69528;BME280;57136;51.986;4.468;2023-01-30T13:12:15;102128.47;;;11.91;68.10
69528;BME280;57136;51.986;4.468;2023-01-30T13:15:00;102135.13;;;10.96;69.94
69528;BME280;57136;51.986;4.468;2023-01-30T13:21:10;102131.41;;;10.84;71.17
69528;BME280;57136;51.986;4.468;2023-01-30T13:26:40;102149.84;;;11.70;68.80
69528;BME280;57136;51.986;4.468;2023-01-30T13:29:17;102152.31;;;11.24;69.58
69528;BME280;57136;51.986;4.468;2023-01-30T13:31:50;102145.53;;;10.94;70.02
69528;BME280;57136;51.986;4.468;2023-01-30T13:34:30;102157.47;;;11.21;68.82
69528;BME280;57136;51.986;4.468;2023-01-30T13:37:14;102160.34;;;10.95;69.06
69528;BME280;57136;51.986;4.468;2023-01-30T13:39:51;102170.25;;;11.10;68.91
69528;BME280;57136;51.986;4.468;2023-01-30T13:44:51;102178.97;;;10.42;71.00
69528;BME280;57136;51.986;4.468;2023-01-30T13:52:33;102189.19;;;11.39;67.88
69528;BME280;57136;51.986;4.468;2023-01-30T13:55:20;102193.53;;;11.02;69.92
69528;BME280;57136;51.986;4.468;2023-01-30T13:58:18;102198.63;;;11.33;69.79
69528;BME280;57136;51.986;4.468;2023-01-30T14:00:51;102202.91;;;10.94;68.09
69528;BME280;57136;51.986;4.468;2023-01-30T14:03:31;102199.56;;;10.64;69.30
69528;BME280;57136;51.986;4.468;2023-01-30T14:05:59;102216.22;;;10.07;72.16
69528;BME280;57136;51.986;4.468;2023-01-30T14:11:00;102215.69;;;9.59;75.57
69528;BME280;57136;51.986;4.468;2023-01-30T14:13:26;102214.78;;;9.57;76.26
69528;BME280;57136;51.986;4.468;2023-01-30T14:15:55;102221.34;;;9.75;75.79
69528;BME280;57136;51.986;4.468;2023-01-30T14:18:31;102234.41;;;9.77;76.35
69528;BME280;57136;51.986;4.468;2023-01-30T14:21:22;102236.22;;;9.50;77.26
69528;BME280;57136;51.986;4.468;2023-01-30T14:24:02;102247.66;;;9.55;77.17
69528;BME280;57136;51.986;4.468;2023-01-30T14:29:50;102257.41;;;9.08;78.74
69528;BME280;57136;51.986;4.468;2023-01-30T14:40:30;102279.66;;;10.09;74.50
69528;BME280;57136;51.986;4.468;2023-01-30T14:45:57;102274.44;;;9.51;74.84
69528;BME280;57136;51.986;4.468;2023-01-30T14:50:48;102304.03;;;9.55;75.25
69528;BME280;57136;51.986;4.468;2023-01-30T14:53:14;102301.69;;;9.37;76.32
69528;BME280;57136;51.986;4.468;2023-01-30T14:55:40;102298.25;;;9.38;76.01
69528;BME280;57136;51.986;4.468;2023-01-30T14:58:16;102310.16;;;9.57;76.74
69528;BME280;57136;51.986;4.468;2023-01-30T15:00:57;102307.72;;;9.62;76.53
69528;BME280;57136;51.986;4.468;2023-01-30T15:03:24;102313.38;;;9.22;78.01
69528;BME280;57136;51.986;4.468;2023-01-30T15:05:50;102307.34;;;9.51;76.83
69528;BME280;57136;51.986;4.468;2023-01-30T15:08:19;102307.19;;;9.19;78.73
69528;BME280;57136;51.986;4.468;2023-01-30T15:32:20;102342.91;;;8.50;84.44
69528;BME280;57136;51.986;4.468;2023-01-30T15:34:51;102344.59;;;8.27;85.88
69528;BME280;57136;51.986;4.468;2023-01-30T15:37:37;102361.69;;;8.44;85.05
69528;BME280;57136;51.986;4.468;2023-01-30T15:50:59;102369.06;;;7.67;90.76
69528;BME280;57136;51.986;4.468;2023-01-30T15:53:29;102371.00;;;7.93;89.59
69528;BME280;57136;51.986;4.468;2023-01-30T15:55:59;102385.75;;;7.94;89.95